createdAt,value
2018-05-15T00:02:15.027Z,70.90
2018-05-15T00:04:43.304Z,70.90
2018-05-15T00:07:11.859Z,70.80
2018-05-15T00:09:40.111Z,70.70
2018-05-15T00:12:09.156Z,71.30
2018-05-15T00:14:37.410Z,71.30
2018-05-15T00:17:05.741Z,69.10
2018-05-15T00:19:34.246Z,69.70
2018-05-15T00:22:02.626Z,69.50
2018-05-15T00:24:30.909Z,71.40
2018-05-15T00:26:59.170Z,71.40
2018-05-15T00:29:27.467Z,72.20
2018-05-15T00:31:55.742Z,71.70
2018-05-15T00:34:23.986Z,71.00
2018-05-15T00:36:52.369Z,70.70
2018-05-15T00:39:20.659Z,71.50
2018-05-15T00:41:48.933Z,71.10
2018-05-15T00:44:17.278Z,72.10
2018-05-15T00:46:45.622Z,69.70
2018-05-15T00:49:13.889Z,70.70
2018-05-15T00:51:42.345Z,70.40
2018-05-15T00:54:10.736Z,72.60
2018-05-15T00:56:39.026Z,70.80
2018-05-15T00:59:07.285Z,70.30
2018-05-15T01:01:35.526Z,70.10
2018-05-15T01:04:03.792Z,69.80
2018-05-15T01:06:32.843Z,68.60
2018-05-15T01:09:01.097Z,68.70
2018-05-15T01:11:29.364Z,69.20
2018-05-15T01:13:57.644Z,70.00
2018-05-15T01:16:25.883Z,70.30
2018-05-15T01:18:54.168Z,69.40
2018-05-15T01:21:22.411Z,67.10
2018-05-15T01:23:50.799Z,68.20
2018-05-15T01:26:19.065Z,69.00
2018-05-15T01:28:47.374Z,68.20
2018-05-15T01:31:15.637Z,69.20
2018-05-15T01:33:44.651Z,70.00
2018-05-15T01:36:12.991Z,70.00
2018-05-15T01:38:42.052Z,69.00
2018-05-15T01:41:10.335Z,69.10
2018-05-15T01:43:38.674Z,69.70
2018-05-15T01:46:07.014Z,70.10
2018-05-15T01:48:36.045Z,68.80
2018-05-15T01:51:04.398Z,68.80
2018-05-15T01:53:33.406Z,70.20
2018-05-15T01:56:01.683Z,70.40
2018-05-15T01:58:29.941Z,68.20
2018-05-15T02:00:58.985Z,69.20
2018-05-15T02:03:27.245Z,69.00
2018-05-15T02:05:55.497Z,68.00
2018-05-15T02:08:23.763Z,70.00
2018-05-15T02:10:52.782Z,68.80
2018-05-15T02:13:21.058Z,68.70
2018-05-15T02:15:49.313Z,68.90
2018-05-15T02:18:17.777Z,70.00
2018-05-15T02:20:46.794Z,68.90
2018-05-15T02:23:15.059Z,68.90
2018-05-15T02:25:43.322Z,69.90
2018-05-15T02:28:12.431Z,69.30
2018-05-15T02:30:40.684Z,69.10
2018-05-15T02:33:09.865Z,67.70
2018-05-15T02:35:38.248Z,67.90
2018-05-15T02:38:07.280Z,68.80
2018-05-15T02:40:35.643Z,68.70
2018-05-15T02:43:03.939Z,70.70
2018-05-15T02:45:32.216Z,68.30
2018-05-15T02:48:01.219Z,69.60
2018-05-15T02:50:29.495Z,69.50
2018-05-15T02:52:57.768Z,71.60
2018-05-15T02:55:26.065Z,70.10
2018-05-15T02:57:54.321Z,68.70
2018-05-15T03:00:22.599Z,70.10
2018-05-15T03:02:50.854Z,70.10
2018-05-15T03:05:19.113Z,68.50
2018-05-15T03:07:47.364Z,71.70
2018-05-15T03:10:16.426Z,71.60
2018-05-15T03:12:44.677Z,71.60
2018-05-15T03:15:12.950Z,70.60
2018-05-15T03:17:41.245Z,70.60
2018-05-15T03:20:09.508Z,69.60
2018-05-15T03:22:37.841Z,70.40
2018-05-15T03:25:06.870Z,70.60
2018-05-15T03:27:35.130Z,70.50
2018-05-15T03:30:03.403Z,68.90
2018-05-15T03:32:31.695Z,69.70
2018-05-15T03:34:59.982Z,68.40
2018-05-15T03:37:28.269Z,70.40
2018-05-15T03:39:56.546Z,69.90
2018-05-15T03:42:24.828Z,69.00
2018-05-15T03:44:53.105Z,69.20
2018-05-15T03:47:21.370Z,69.10
2018-05-15T03:49:49.658Z,71.70
2018-05-15T03:52:17.902Z,69.60
2018-05-15T03:54:46.150Z,69.60
2018-05-15T03:57:14.417Z,71.50
2018-05-15T03:59:43.453Z,71.80
2018-05-15T04:02:23.929Z,71.90
2018-05-15T04:05:04.266Z,72.40
2018-05-15T04:07:44.558Z,72.30
2018-05-15T04:10:12.921Z,72.30
2018-05-15T04:12:41.269Z,71.40
2018-05-15T04:15:09.549Z,72.40
2018-05-15T04:17:37.781Z,70.90
2018-05-15T04:20:06.068Z,70.20
2018-05-15T04:22:34.330Z,71.50
2018-05-15T04:25:03.378Z,70.50
2018-05-15T04:27:31.610Z,70.50
2018-05-15T04:29:59.878Z,71.00
2018-05-15T04:32:28.135Z,70.80
2018-05-15T04:34:57.186Z,67.80
2018-05-15T04:37:25.451Z,67.70
2018-05-15T04:39:53.718Z,67.90
2018-05-15T04:42:21.975Z,66.40
2018-05-15T04:44:50.334Z,66.50
2018-05-15T04:47:19.362Z,65.90
2018-05-15T04:49:47.613Z,65.90
2018-05-15T04:52:15.885Z,65.10
2018-05-15T04:54:44.157Z,64.50
2018-05-15T04:57:14.054Z,63.40
2018-05-15T04:59:42.345Z,63.40
2018-05-15T05:02:10.720Z,61.30
2018-05-15T05:04:39.763Z,61.40
2018-05-15T05:07:08.038Z,61.10
2018-05-15T05:09:36.274Z,60.60
2018-05-15T05:12:04.529Z,60.50
2018-05-15T05:14:33.567Z,59.00
2018-05-15T05:17:01.846Z,58.80
2018-05-15T05:19:30.101Z,58.40
2018-05-15T05:21:58.383Z,58.40
2018-05-15T05:24:26.646Z,59.60
2018-05-15T05:26:54.923Z,59.20
2018-05-15T05:29:23.192Z,59.00
2018-05-15T05:31:51.470Z,59.60
2018-05-15T05:34:19.742Z,59.00
2018-05-15T05:36:48.102Z,57.60
2018-05-15T05:39:17.160Z,57.00
2018-05-15T05:41:45.444Z,57.00
2018-05-15T05:44:13.729Z,57.30
2018-05-15T05:46:42.059Z,56.80
2018-05-15T05:49:10.318Z,57.80
2018-05-15T05:51:38.761Z,58.30
2018-05-15T05:54:08.547Z,57.60
2018-05-15T05:56:36.859Z,57.60
2018-05-15T05:59:05.100Z,57.90
2018-05-15T06:01:33.372Z,58.40
2018-05-15T06:04:01.641Z,58.20
2018-05-15T06:06:29.893Z,58.30
2018-05-15T06:08:58.173Z,58.40
2018-05-15T06:11:26.505Z,58.50
2018-05-15T06:13:55.562Z,57.70
2018-05-15T06:16:23.855Z,57.60
2018-05-15T06:18:52.904Z,57.60
2018-05-15T06:21:21.160Z,57.60
2018-05-15T06:23:50.258Z,56.90
2018-05-15T06:26:18.531Z,56.90
2018-05-15T06:28:46.790Z,57.10
2018-05-15T06:31:15.917Z,57.80
2018-05-15T06:33:44.193Z,57.80
2018-05-15T06:36:12.469Z,58.40
2018-05-15T06:38:40.718Z,58.00
2018-05-15T06:41:08.978Z,59.10
2018-05-15T06:43:37.267Z,59.10
2018-05-15T06:46:05.594Z,59.10
2018-05-15T06:48:33.866Z,61.10
2018-05-15T06:51:02.117Z,61.50
2018-05-15T06:53:30.395Z,61.60
2018-05-15T06:55:58.681Z,62.10
2018-05-15T06:58:26.981Z,62.10
2018-05-15T07:00:55.241Z,61.90
2018-05-15T07:03:23.515Z,61.50
2018-05-15T07:05:51.798Z,63.10
2018-05-15T07:08:20.063Z,61.60
2018-05-15T07:10:48.321Z,61.80
2018-05-15T07:13:16.650Z,63.10
2018-05-15T07:15:45.019Z,63.50
2018-05-15T07:18:13.302Z,62.00
2018-05-15T07:20:42.334Z,60.90
2018-05-15T07:23:10.606Z,61.50
2018-05-15T07:25:38.872Z,62.70
2018-05-15T07:28:07.944Z,60.10
2018-05-15T07:30:36.211Z,60.10
2018-05-15T07:33:05.260Z,60.40
2018-05-15T07:35:33.514Z,59.80
2018-05-15T07:38:02.395Z,59.90
2018-05-15T07:40:31.778Z,60.10
2018-05-15T07:43:00.038Z,60.40
2018-05-15T07:45:28.310Z,61.20
2018-05-15T07:47:56.601Z,59.40
2018-05-15T07:50:25.707Z,59.80
2018-05-15T07:52:54.732Z,59.10
2018-05-15T07:55:23.011Z,59.10
2018-05-15T07:57:51.305Z,59.60
2018-05-15T08:00:19.590Z,60.00
2018-05-15T08:02:47.938Z,59.20
2018-05-15T08:05:16.213Z,58.70
2018-05-15T08:07:44.544Z,59.00
2018-05-15T08:10:12.773Z,59.00
2018-05-15T08:12:41.031Z,59.30
2018-05-15T08:15:09.329Z,58.90
2018-05-15T08:17:37.631Z,58.40
2018-05-15T08:20:06.637Z,57.60
2018-05-15T08:22:35.864Z,57.20
2018-05-15T08:25:04.085Z,57.20
2018-05-15T08:27:32.393Z,57.20
2018-05-15T08:30:01.447Z,57.30
2018-05-15T08:32:29.792Z,57.30
2018-05-15T08:34:58.062Z,56.00
2018-05-15T08:37:26.453Z,56.80
2018-05-15T08:39:54.571Z,57.50
2018-05-15T08:42:23.657Z,56.90
2018-05-15T08:44:52.694Z,56.30
2018-05-15T08:47:20.953Z,57.00
2018-05-15T08:49:49.251Z,55.70
2018-05-15T08:52:17.609Z,54.40
2018-05-15T08:54:45.872Z,55.20
2018-05-15T08:57:14.918Z,55.50
2018-05-15T08:59:43.190Z,55.40
2018-05-15T09:02:11.485Z,55.60
2018-05-15T09:04:39.870Z,54.10
2018-05-15T09:07:08.914Z,52.80
2018-05-15T09:09:37.210Z,52.90
2018-05-15T09:12:05.470Z,52.50
2018-05-15T09:14:33.838Z,51.30
2018-05-15T09:17:02.114Z,50.70
2018-05-15T09:19:30.398Z,50.80
2018-05-15T09:21:58.657Z,50.90
2018-05-15T09:24:26.918Z,51.10
2018-05-15T09:26:55.184Z,49.40
2018-05-15T09:29:24.318Z,49.40
2018-05-15T09:31:53.295Z,48.80
2018-05-15T09:34:21.735Z,48.70
2018-05-15T09:36:50.137Z,47.40
2018-05-15T09:39:19.174Z,47.50
2018-05-15T09:41:48.967Z,47.60
2018-05-15T09:44:17.213Z,47.60
2018-05-15T09:46:45.520Z,47.30
2018-05-15T09:49:13.806Z,47.80
2018-05-15T09:51:42.117Z,46.60
2018-05-15T09:54:10.702Z,46.90
2018-05-15T09:56:39.298Z,46.90
2018-05-15T09:59:08.403Z,48.00
2018-05-15T10:01:36.781Z,48.00
2018-05-15T10:04:05.117Z,47.30
2018-05-15T10:06:34.898Z,46.80
2018-05-15T10:09:03.158Z,46.80
2018-05-15T10:11:31.458Z,46.90
2018-05-15T10:13:59.730Z,47.50
2018-05-15T10:16:28.023Z,47.40
2018-05-15T10:18:56.308Z,46.60
2018-05-15T10:21:24.578Z,47.00
2018-05-15T10:23:52.893Z,47.40
2018-05-15T10:26:22.045Z,48.30
2018-05-15T10:28:50.316Z,48.30
2018-05-15T10:31:18.695Z,46.50
2018-05-15T10:33:47.131Z,46.60
2018-05-15T10:36:16.147Z,46.90
2018-05-15T10:38:44.573Z,46.80
2018-05-15T10:41:12.838Z,47.30
2018-05-15T10:43:41.112Z,47.60
2018-05-15T10:46:10.185Z,45.90
2018-05-15T10:48:38.508Z,46.00
2018-05-15T10:51:07.647Z,47.00
2018-05-15T10:53:35.948Z,47.00
2018-05-15T10:56:04.277Z,45.30
2018-05-15T10:58:32.577Z,45.40
2018-05-15T11:01:00.869Z,45.70
2018-05-15T11:03:29.129Z,46.70
2018-05-15T11:05:57.398Z,46.20
2018-05-15T11:08:25.703Z,45.50
2018-05-15T11:10:54.050Z,45.80
2018-05-15T11:13:22.300Z,46.20
2018-05-15T11:15:50.592Z,46.60
2018-05-15T11:18:27.866Z,46.60
2018-05-15T11:21:07.983Z,46.40
2018-05-15T11:23:51.098Z,46.10
2018-05-15T11:26:20.159Z,46.40
2018-05-15T11:28:48.410Z,46.30
2018-05-15T11:31:16.715Z,47.00
2018-05-15T11:33:44.994Z,46.50
2018-05-15T11:36:13.263Z,46.60
2018-05-15T11:38:41.743Z,46.20
2018-05-15T11:41:10.015Z,46.20
2018-05-15T11:43:38.288Z,46.90
2018-05-15T11:46:06.577Z,47.50
2018-05-15T11:48:35.311Z,46.20
2018-05-15T11:51:03.681Z,47.00
2018-05-15T11:53:31.343Z,48.00
2018-05-15T11:55:59.640Z,46.00
2018-05-15T11:58:27.949Z,45.80
2018-05-15T12:00:56.264Z,44.90
2018-05-15T12:03:24.530Z,45.20
2018-05-15T12:05:52.860Z,44.90
2018-05-15T12:08:21.263Z,45.30
2018-05-15T12:10:49.595Z,45.20
2018-05-15T12:13:17.847Z,45.50
2018-05-15T12:15:46.404Z,45.50
2018-05-15T12:18:16.152Z,45.30
2018-05-15T12:20:44.520Z,45.20
2018-05-15T12:23:12.826Z,45.50
2018-05-15T12:25:41.099Z,45.70
2018-05-15T12:28:09.623Z,46.00
2018-05-15T12:30:38.561Z,44.90
2018-05-15T12:33:06.831Z,44.60
2018-05-15T12:35:35.074Z,45.60
2018-05-15T12:38:04.108Z,46.20
2018-05-15T12:40:32.353Z,46.30
2018-05-15T12:43:00.659Z,45.50
2018-05-15T12:45:28.905Z,45.90
2018-05-15T12:47:58.042Z,46.20
2018-05-15T12:50:26.186Z,46.10
2018-05-15T12:52:54.868Z,46.00
2018-05-15T12:55:23.131Z,44.70
2018-05-15T12:57:51.430Z,44.70
2018-05-15T13:00:19.781Z,44.60
2018-05-15T13:02:48.818Z,43.70
2018-05-15T13:05:17.078Z,43.60
2018-05-15T13:07:45.346Z,44.50
2018-05-15T13:10:13.649Z,45.90
2018-05-15T13:12:41.969Z,45.30
2018-05-15T13:15:11.002Z,43.50
2018-05-15T13:17:39.401Z,43.50
2018-05-15T13:20:07.683Z,44.30
2018-05-15T13:22:35.958Z,45.00
2018-05-15T13:25:04.322Z,44.80
2018-05-15T13:27:32.598Z,44.40
2018-05-15T13:30:00.958Z,44.30
2018-05-15T13:32:29.226Z,44.70
2018-05-15T13:34:57.539Z,44.70
2018-05-15T13:37:27.341Z,44.30
2018-05-15T13:39:55.643Z,43.60
2018-05-15T13:42:24.696Z,44.20
2018-05-15T13:44:53.058Z,43.90
2018-05-15T13:47:21.323Z,44.40
2018-05-15T13:49:49.610Z,44.00
2018-05-15T13:52:17.897Z,42.80
2018-05-15T13:54:46.406Z,43.20
2018-05-15T13:57:14.716Z,43.30
2018-05-15T13:59:42.975Z,42.90
2018-05-15T14:02:12.048Z,44.70
2018-05-15T14:04:40.306Z,44.60
2018-05-15T14:07:08.600Z,44.30
2018-05-15T14:09:36.862Z,44.40
2018-05-15T14:12:05.221Z,43.30
2018-05-15T14:14:33.513Z,43.40
2018-05-15T14:17:02.044Z,42.50
2018-05-15T14:19:30.322Z,42.80
2018-05-15T14:21:58.612Z,42.70
2018-05-15T14:24:26.857Z,43.90
2018-05-15T14:26:56.011Z,41.90
2018-05-15T14:29:24.282Z,42.00
2018-05-15T14:31:52.582Z,42.60
2018-05-15T14:34:21.730Z,41.60
2018-05-15T14:36:50.091Z,41.40
2018-05-15T14:39:19.102Z,41.00
2018-05-15T14:41:59.351Z,40.90
2018-05-15T14:44:28.397Z,42.20
2018-05-15T14:46:56.645Z,42.10
2018-05-15T14:49:24.939Z,43.10
2018-05-15T14:51:54.759Z,43.70
2018-05-15T14:54:24.551Z,43.20
2018-05-15T14:56:52.935Z,43.20
2018-05-15T14:59:21.230Z,43.30
2018-05-15T15:01:50.261Z,44.00
2018-05-15T15:04:18.549Z,43.30
2018-05-15T15:06:46.848Z,42.70
2018-05-15T15:09:15.112Z,43.00
2018-05-15T15:11:43.374Z,42.30
2018-05-15T15:14:11.658Z,42.20
2018-05-15T15:16:40.142Z,42.90
2018-05-15T15:19:08.457Z,42.80
2018-05-15T15:21:36.711Z,42.50
2018-05-15T15:24:04.963Z,42.00
2018-05-15T15:26:33.234Z,42.90
2018-05-15T15:29:01.650Z,43.00
2018-05-15T15:31:30.695Z,43.10
2018-05-15T15:33:58.976Z,43.20
2018-05-15T15:36:27.249Z,43.50
2018-05-15T15:38:55.514Z,44.10
2018-05-15T15:41:23.807Z,44.30
2018-05-15T15:43:52.244Z,42.50
2018-05-15T15:46:20.827Z,42.40
2018-05-15T15:48:49.862Z,40.60
2018-05-15T15:51:18.122Z,40.60
2018-05-15T15:53:46.398Z,40.20
2018-05-15T15:56:14.669Z,41.80
2018-05-15T15:58:43.799Z,42.70
2018-05-15T16:01:12.094Z,42.50
2018-05-15T16:03:40.350Z,42.60
2018-05-15T16:06:08.677Z,41.60
2018-05-15T16:08:37.105Z,41.30
2018-05-15T16:11:05.351Z,41.10
2018-05-15T16:13:33.609Z,41.90
2018-05-15T16:16:01.918Z,41.50
2018-05-15T16:18:30.279Z,42.60
2018-05-15T16:20:58.529Z,42.20
2018-05-15T16:23:26.845Z,42.70
2018-05-15T16:25:55.131Z,41.90
2018-05-15T16:28:23.808Z,41.30
2018-05-15T16:30:52.087Z,40.90
2018-05-15T16:33:20.382Z,40.60
2018-05-15T16:35:48.655Z,40.10
2018-05-15T16:38:16.991Z,40.40
2018-05-15T16:40:45.276Z,39.80
2018-05-15T16:43:13.547Z,39.90
2018-05-15T16:45:44.347Z,40.80
2018-05-15T16:48:13.947Z,38.70
2018-05-15T16:50:42.243Z,38.70
2018-05-15T16:53:10.483Z,38.70
2018-05-15T16:55:39.578Z,38.80
2018-05-15T16:58:08.615Z,39.50
2018-05-15T17:00:37.714Z,40.30
2018-05-15T17:03:05.985Z,39.70
2018-05-15T17:05:34.278Z,39.80
2018-05-15T17:08:04.190Z,40.50
2018-05-15T17:10:32.443Z,40.60
2018-05-15T17:13:00.710Z,42.00
2018-05-15T17:15:29.005Z,41.40
2018-05-15T17:17:57.290Z,39.80
2018-05-15T17:20:25.587Z,40.00
2018-05-15T17:22:53.887Z,40.60
2018-05-15T17:25:22.926Z,39.70
2018-05-15T17:27:51.197Z,39.70
2018-05-15T17:30:19.469Z,39.40
2018-05-15T17:32:48.278Z,40.10
2018-05-15T17:35:17.466Z,40.30
2018-05-15T17:37:46.498Z,39.90
2018-05-15T17:40:15.572Z,39.90
2018-05-15T17:42:43.818Z,39.90
2018-05-15T17:45:12.111Z,40.50
2018-05-15T17:47:40.363Z,39.80
2018-05-15T17:50:08.620Z,39.60
2018-05-15T17:52:36.906Z,39.60
2018-05-15T17:55:05.170Z,39.70
2018-05-15T17:57:33.442Z,40.50
2018-05-15T18:00:01.854Z,41.50
2018-05-15T18:02:30.026Z,41.50
2018-05-15T18:04:58.368Z,44.10
2018-05-15T18:07:26.627Z,42.30
2018-05-15T18:09:54.925Z,43.30
2018-05-15T18:12:23.227Z,42.70
2018-05-15T18:14:51.510Z,42.10
2018-05-15T18:17:19.767Z,42.90
2018-05-15T18:19:48.097Z,43.90
2018-05-15T18:22:17.136Z,43.90
2018-05-15T18:24:45.407Z,43.70
2018-05-15T18:27:13.669Z,42.90
2018-05-15T18:29:41.997Z,42.50
2018-05-15T18:32:10.327Z,42.80
2018-05-15T18:34:39.375Z,42.70
2018-05-15T18:37:08.429Z,45.70
2018-05-15T18:39:36.735Z,45.50
2018-05-15T18:42:05.088Z,43.10
2018-05-15T18:44:33.388Z,45.10
2018-05-15T18:47:01.730Z,44.70
2018-05-15T18:49:29.981Z,44.00
2018-05-15T18:51:58.283Z,44.40
2018-05-15T18:54:26.597Z,44.40
2018-05-15T18:56:54.880Z,46.50
2018-05-15T18:59:24.101Z,45.60
2018-05-15T19:01:52.504Z,45.20
2018-05-15T19:04:20.806Z,46.30
2018-05-15T19:06:49.206Z,47.00
2018-05-15T19:09:17.455Z,48.10
2018-05-15T19:11:45.735Z,47.40
2018-05-15T19:14:14.006Z,45.80
2018-05-15T19:16:42.315Z,47.30
2018-05-15T19:19:11.498Z,46.40
2018-05-15T19:21:39.717Z,46.40
2018-05-15T19:24:08.078Z,46.70
2018-05-15T19:26:36.435Z,46.90
2018-05-15T19:29:04.747Z,46.90
2018-05-15T19:31:33.040Z,47.40
2018-05-15T19:34:01.318Z,46.90
2018-05-15T19:36:29.611Z,47.10
2018-05-15T19:38:57.918Z,48.80
2018-05-15T19:41:26.186Z,47.80
2018-05-15T19:43:54.484Z,45.80
2018-05-15T19:46:22.896Z,47.40
2018-05-15T19:48:51.259Z,46.40
2018-05-15T19:51:19.530Z,47.30
2018-05-15T19:53:48.963Z,48.10
2018-05-15T19:56:17.443Z,48.10
2018-05-15T19:58:45.719Z,48.30
2018-05-15T20:01:14.058Z,49.40
2018-05-15T20:03:42.318Z,48.40
2018-05-15T20:06:10.835Z,48.80
2018-05-15T20:08:39.145Z,48.20
2018-05-15T20:11:07.402Z,49.60
2018-05-15T20:13:35.666Z,49.50
2018-05-15T20:16:04.001Z,49.40
2018-05-15T20:18:34.539Z,49.30
2018-05-15T20:21:03.122Z,49.60
2018-05-15T20:23:31.397Z,49.30
2018-05-15T20:25:59.681Z,48.80
2018-05-15T20:28:27.971Z,49.20
2018-05-15T20:30:56.194Z,49.20
2018-05-15T20:33:25.265Z,50.00
2018-05-15T20:35:53.526Z,49.90
2018-05-15T20:38:21.799Z,50.00
2018-05-15T20:40:50.189Z,50.50
2018-05-15T20:43:18.505Z,50.50
2018-05-15T20:45:47.551Z,51.70
2018-05-15T20:48:15.813Z,51.00
2018-05-15T20:50:44.085Z,50.90
2018-05-15T20:53:14.035Z,52.60
2018-05-15T20:55:44.048Z,52.30
2018-05-15T20:58:13.107Z,51.90
2018-05-15T21:00:41.422Z,51.20
2018-05-15T21:03:10.571Z,51.10
2018-05-15T21:05:38.866Z,51.10
2018-05-15T21:08:07.154Z,51.40
2018-05-15T21:10:35.416Z,52.00
2018-05-15T21:13:03.873Z,52.70
2018-05-15T21:15:32.159Z,52.30
2018-05-15T21:18:00.508Z,52.20
2018-05-15T21:20:28.869Z,52.20
2018-05-15T21:22:57.918Z,53.70
2018-05-15T21:25:26.252Z,54.20
2018-05-15T21:27:54.606Z,52.30
2018-05-15T21:30:23.669Z,52.80
2018-05-15T21:32:51.966Z,52.80
2018-05-15T21:35:21.008Z,52.90
2018-05-15T21:37:49.257Z,52.70
2018-05-15T21:40:17.571Z,52.90
2018-05-15T21:42:45.895Z,53.10
2018-05-15T21:45:14.925Z,53.70
2018-05-15T21:47:43.225Z,53.70
2018-05-15T21:50:11.512Z,54.50
2018-05-15T21:52:39.885Z,54.90
2018-05-15T21:55:08.098Z,54.60
2018-05-15T21:57:37.121Z,54.40
2018-05-15T22:00:05.386Z,54.40
2018-05-15T22:02:34.503Z,55.40
2018-05-15T22:05:02.766Z,55.40
2018-05-15T22:07:31.049Z,55.50
2018-05-15T22:09:59.345Z,55.40
2018-05-15T22:12:39.458Z,55.20
2018-05-15T22:15:25.594Z,55.50
2018-05-15T22:18:11.750Z,55.80
2018-05-15T22:20:57.860Z,56.40
2018-05-15T22:23:31.667Z,56.60
2018-05-15T22:26:00.471Z,56.70
2018-05-15T22:28:28.785Z,56.60
2018-05-15T22:30:57.184Z,57.20
2018-05-15T22:33:25.483Z,57.40
2018-05-15T22:35:53.754Z,57.40
2018-05-15T22:38:22.053Z,58.50
2018-05-15T22:40:50.473Z,58.10
2018-05-15T22:43:18.762Z,57.80
2018-05-15T22:45:47.165Z,58.20
2018-05-15T22:48:15.428Z,57.70
2018-05-15T22:50:43.706Z,58.90
2018-05-15T22:53:11.953Z,59.00
2018-05-15T22:55:40.984Z,59.60
2018-05-15T22:58:09.258Z,59.50
2018-05-15T23:00:37.534Z,60.00
2018-05-15T23:03:05.782Z,60.50
2018-05-15T23:05:34.078Z,61.20
2018-05-15T23:08:02.405Z,61.90
2018-05-15T23:10:30.678Z,61.00
2018-05-15T23:12:59.056Z,61.90
2018-05-15T23:15:28.089Z,61.60
2018-05-15T23:17:56.380Z,61.60
2018-05-15T23:20:24.659Z,63.00
2018-05-15T23:22:52.938Z,62.60
2018-05-15T23:25:21.317Z,63.30
2018-05-15T23:27:49.603Z,64.40
2018-05-15T23:30:19.382Z,64.10
2018-05-15T23:32:47.667Z,64.20
2018-05-15T23:35:16.092Z,64.20
2018-05-15T23:37:45.123Z,64.20
2018-05-15T23:40:13.415Z,64.20
2018-05-15T23:42:41.667Z,64.70
2018-05-15T23:45:09.948Z,65.30
2018-05-15T23:47:38.251Z,65.60
2018-05-15T23:50:06.530Z,65.60
2018-05-15T23:52:34.990Z,66.00
2018-05-15T23:55:03.258Z,66.90
2018-05-15T23:57:31.798Z,67.10
